Detalii statie VALKAPA [00001D0A]

Toti senzorii

Date Temperatura solului [C]Precipitatii [mm]Voltaj baterie [mV]Leaf Wetness [Min]HC Air temperature [C]HC Relative humidity [%]Punctul de roua [C]
medieminmaxsumaultimatimpmedieminmaxmediemediemin
2019-08-15 20:00:00 0 6904 19.22 18.6 19.6 64.33 12.1 11.9
2019-08-15 21:00:00 0 6904 17.95 17.45 18.54 71.27 12.5 12.2
2019-08-15 22:00:00 0 6894 16.66 15.29 17.83 78.45 12.7 12.2
2019-08-15 23:00:00 0 6884 14.16 13.55 15.05 91.04 12.6 12.2
2019-08-16 00:00:00 0 6854 13.02 12.42 13.73 94.61 12 11.3
2019-08-16 01:00:00 0 6834 12.31 11.89 12.89 96.69 11.6 11.1
2019-08-16 02:00:00 0 6826 11.79 11.54 12.18 98.01 11.3 11.1
2019-08-16 03:00:00 0 6816 11.31 11.01 11.55 99.54 11 10.8
2019-08-16 04:00:00 0 6806 10.73 9.83 11.49 99.19 10.4 9.7
2019-08-16 05:00:00 0 6786 9.95 9.66 10.15 99.9 9.8 9.5
2019-08-16 06:00:00 0 6776 9.46 9.07 10.06 100 9.4 9
2019-08-16 07:00:00 0 6844 9.82 9.22 10.92 100 9.7 9.2
2019-08-16 08:00:00 0 7000 13.71 11.28 15.79 92.93 12.4 11.2
2019-08-16 09:00:00 0 7070 17.82 16.62 19.52 70.04 12.1 11.4
2019-08-16 10:00:00 0 7176 20.1 18.99 21.17 58.39 11.5 11.2
2019-08-16 11:00:00 0 7236 22.69 21.59 23.53 46.93 10.5 9.7
2019-08-16 12:00:00 0 7236 23.56 22.75 24.56 41.63 9.6 9
2019-08-16 13:00:00 0 7236 24.76 23.94 25.8 35.8 8.3 7.1
2019-08-16 14:00:00 0 7236 25.55 24.11 26.34 33.44 8 7.2
2019-08-16 15:00:00 0 7226 25.84 24.36 27.3 33.36 8.2 7.6
2019-08-16 16:00:00 0 7226 26.18 25.56 26.66 30.83 7.4 6.6
2019-08-16 17:00:00 0 7226 25.69 24.73 26.54 31.43 7.2 6.5
2019-08-16 18:00:00 0 7226 25.07 24.75 25.51 32.96 7.4 6.6
2019-08-16 19:00:00 0 7206 23.87 22.73 24.75 38.4 8.5 7.7
2019-08-16 20:00:00 0 6904 19.8 17.9 22.29 57.59 10.9 10
2019-08-16 21:00:00 0 6894 16.32 15.5 17.52 74.63 11.6 11.1
2019-08-16 22:00:00 0 6884 14.66 13.86 15.54 83.54 11.7 11.1
2019-08-16 23:00:00 0 6864 13.26 12.75 13.64 89.33 11.4 10.8
2019-08-17 00:00:00 0 6854 12.42 11.96 12.81 92.09 11 10.7
2019-08-17 01:00:00 0 6844 12.8 12.29 13.54 93.92 11.7 11.2
2019-08-17 02:00:00 0 6834 13.29 12.62 13.71 88.78 11.4 11.1
2019-08-17 03:00:00 0 6834 12.36 11.86 13.08 92.97 11.1 10.9
2019-08-17 04:00:00 0 6826 11.9 11.62 12.17 95.64 11.1 10.8
2019-08-17 05:00:00 0 6816 11.77 11.45 12.34 95.99 11 10.8
2019-08-17 06:00:00 0 6796 12.79 12.2 13.24 93.63 11.6 11.1
2019-08-17 07:00:00 0 6844 13.82 12.95 14.76 89.94 12 11.8
2019-08-17 08:00:00 0 7070 15.5 14.94 16.14 79.5 11.8 11.5
2019-08-17 09:00:00 0 7196 17.57 16.43 18.95 71.56 12.2 11.6
2019-08-17 10:00:00 0 7216 19.52 18.79 21.62 63.18 12.1 11.5
2019-08-17 11:00:00 0 7236 22.94 21.78 24.15 48.05 11.1 10
2019-08-17 12:00:00 0 7236 24.75 23.73 26.31 39.95 10 8.7
2019-08-17 13:00:00 0 7226 26.06 24.79 26.83 38.25 10.5 10.1
2019-08-17 14:00:00 0 7226 26.17 25.25 27.42 37.54 10.3 9.7
2019-08-17 15:00:00 0 7226 27.35 26.36 28.27 35.21 10.3 9.9
2019-08-17 16:00:00 0 7236 26.91 25.49 27.98 36.24 10.3 9.8
2019-08-17 17:00:00 0 7226 26.78 26.03 27.46 36.43 10.4 9.9
2019-08-17 18:00:00 0 7216 26.66 26.06 27.23 37.16 10.5 9.9
2019-08-17 19:00:00 0 7216 24.41 22.98 25.92 46.29 11.8 10.5